Elroy, Wisconsin
Current Conditions -  °F | °C
As of 2:58 PM on Friday 31 Oct 2014 (Local Time) from KVOK Reporting Station
Broken Clouds Broken Clouds  
Wind Chill: 32°   Ceiling: 4800
Heat Index: 39°   Visibility: 10mi
Dew Point: 18°   Wind: 12mph
Humidity: 42%   Direction: 10°N
Pressure: 30.4"   Gusts: 22mph
Location:  43.74°N, 90.27°W
Report Text: KVOK 311958Z 01010G19KT 10SM BKN048 04/M08 A3040 RMK AO2A PK WND 35027/16 SLP308
Loading
Personal Weather Stations






























Interactive Weather Map
Tropical Storm Tracking
New forecast layout! Learn more

10-Day Weather Forecast

Advertisements
Track Severe Weather on mobile